This is the latest recevied weather packets stored in our database for station/object IW1QAF-33. If no packets are shown the sender has not sent any weather packets the latest 1 day(s).
| Time | Temp. | Humidity | Pressure | Rain* | Wind** | Luminosity | Snow |
|---|---|---|---|---|---|---|---|
| 1777978936 | 16.11° C | 100% | 1012 hPa | 0 mm | 1.79 m/s, 110° | 48 W/m² | - |
| 1777978332 | 16.67° C | 100% | 1011 hPa | 0 mm | 1.34 m/s, 75° | 54 W/m² | - |
| 1777977124 | 15.56° C | 100% | 1011 hPa | 0 mm | 1.79 m/s, 97° | 56 W/m² | - |
| 1777976520 | 15° C | 100% | 1011 hPa | 0 mm | 1.34 m/s, 97° | 67 W/m² | - |
| 1777975312 | 15.56° C | 100% | 1012 hPa | 0 mm | 3.13 m/s, 120° | 87 W/m² | - |
| 1777974104 | 16.11° C | 100% | 1012 hPa | 0 mm | 1.34 m/s, 74° | 103 W/m² | - |
| 1777973500 | 16.67° C | 100% | 1013 hPa | 0 mm | 1.34 m/s, 94° | 174 W/m² | - |
| 1777972292 | 14.44° C | 100% | 1011 hPa | 0 mm | 0.89 m/s, 81° | 46 W/m² | - |
| 1777971084 | 14.44° C | 100% | 1010 hPa | 0 mm | 1.34 m/s, 69° | 28 W/m² | - |
| 1777970481 | 14.44° C | 100% | 1010 hPa | 0 mm | 1.79 m/s, 67° | 44 W/m² | - |
| 1777969877 | 13.33° C | 100% | 1010 hPa | 0 mm | 2.24 m/s, 131° | 36 W/m² | - |
| 1777969272 | 13.89° C | 100% | 1010 hPa | 0 mm | 2.24 m/s, 105° | 43 W/m² | - |
| 1777968669 | 13.33° C | 100% | 1010 hPa | 0 mm | 2.24 m/s, 103° | 48 W/m² | - |
| 1777968065 | 13.33° C | 100% | 1010 hPa | 0 mm | 2.24 m/s, 95° | 51 W/m² | - |
| 1777967461 | 15° C | 100% | 1011 hPa | 0 mm | 1.79 m/s, 122° | 72 W/m² | - |
| 1777966857 | 17.22° C | 100% | 1011 hPa | 0 mm | 1.34 m/s, 117° | 91 W/m² | - |
| 1777966253 | 14.44° C | 100% | 1010 hPa | 0 mm | 2.68 m/s, 112° | 86 W/m² | - |
| 1777965649 | 15.56° C | 100% | 1010 hPa | 0 mm | 2.24 m/s, 90° | 260 W/m² | - |
| 1777965045 | 13.89° C | 100% | 1010 hPa | 0 mm | 2.24 m/s, 92° | 70 W/m² | - |
| 1777964441 | 13.89° C | 100% | 1010 hPa | 0 mm | 2.24 m/s, 144° | 68 W/m² | - |
| 1777963233 | 13.33° C | 100% | 1009 hPa | 0 mm | 2.24 m/s, 92° | 126 W/m² | - |
| 1777962632 | 12.78° C | 100% | 1009 hPa | 0 mm | 2.68 m/s, 106° | 104 W/m² | - |
| 1777962018 | 12.22° C | 100% | 1009 hPa | 0 mm | 2.68 m/s, 87° | 15 W/m² | - |
| 1777961421 | 11.67° C | 100% | 1008 hPa | 0 mm | 2.68 m/s, 94° | 16 W/m² | - |
| 1777960817 | 12.22° C | 100% | 1008 hPa | 0 mm | 2.24 m/s, 87° | 10 W/m² | - |
* Rain latest hour (hover to see other rain measurements)
** Current wind speed in m/s (hover to see current wind gust speed)